KCOS

City of Colorado Springs Municipal Airport

Colorado Springs, Colorado, USA
METAR KCOS 231554Z 00000KT 8SM SCT075 M04/M07 A3003 RMK AO2 SLP219 HZ T10391072
Observed Flight Rules
Feb-23 @ 15:54 UTC (44 minutes ago) Visual Flight Rules
Wind Visibility Clouds
Calm 8 miles
  • Scattered at 7,500' AGL
Temperatures Readings
Current -4°C / 25°F
Dewpoint -7°C / 19°F
Humidity 80%
Altimeter 30.03" Hg
Pressure 1021.9 hPa
Elevation 1856
METAR KCOS 231554Z 00000KT 8SM SCT075 M04/M07 A3003 RMK AO2 SLP219 HZ T10391072
Observed Flight Rules
Feb-23 @ 15:54 UTC
(44 minutes ago)
VFR
Wind Visibility
Calm 8 miles
Clouds
  • Scattered at 7,500' AGL
Temperature Dewpoint
-4°C / 25°F -7°C / 19°F
Humidity Altimeter Pressure
80% 30.03" Hg 1021.9 hPa